createdAt,value
2023-03-18T00:01:41.382Z,25.4
2023-03-18T00:07:34.907Z,24.9
2023-03-18T00:13:12.262Z,24.8
2023-03-18T00:18:02.641Z,24.4
2023-03-18T00:23:24.351Z,24.4
2023-03-18T00:29:16.986Z,24.1
2023-03-18T00:34:53.975Z,25.3
2023-03-18T00:40:47.823Z,26.3
2023-03-18T00:46:41.738Z,27
2023-03-18T00:52:02.788Z,26.3
2023-03-18T00:57:40.998Z,25.5
2023-03-18T01:03:34.810Z,25.1
2023-03-18T01:09:11.872Z,24.6
2023-03-18T01:14:52.744Z,24.4
2023-03-18T01:20:45.696Z,24
2023-03-18T01:26:07.372Z,24.8
2023-03-18T01:31:44.293Z,25.9
2023-03-18T01:37:37.484Z,26.9
2023-03-18T01:43:28.768Z,26.8
2023-03-18T01:49:06.783Z,25.5
2023-03-18T01:54:29.004Z,25.1
2023-03-18T02:00:21.294Z,24.5
2023-03-18T02:06:15.548Z,24.2
2023-03-18T02:12:07.940Z,23.9
2023-03-18T02:17:45.204Z,24
2023-03-18T02:23:06.877Z,24.8
2023-03-18T02:28:45.323Z,26.2
2023-03-18T02:34:37.315Z,26.8
2023-03-18T02:40:31.488Z,26.6
2023-03-18T02:46:24.091Z,25.2
2023-03-18T02:52:15.446Z,24.7
2023-03-18T02:58:08.224Z,24.2
2023-03-18T03:03:16.061Z,24
2023-03-18T03:08:52.985Z,23.7
2023-03-18T03:14:30.501Z,24.3
2023-03-18T03:20:07.567Z,25.3
2023-03-18T03:26:00.485Z,26.4
2023-03-18T03:31:53.017Z,26.7
2023-03-18T03:37:15.068Z,25.9
2023-03-18T03:43:07.795Z,24.9
2023-03-18T03:49:01.113Z,24.5
2023-03-18T03:54:38.936Z,24
2023-03-18T04:00:15.732Z,23.9
2023-03-18T04:05:37.750Z,23.5
2023-03-18T04:11:15.150Z,24.2
2023-03-18T04:17:08.486Z,25.1
2023-03-18T04:22:30.875Z,25
2023-03-18T04:28:07.481Z,25.1
2023-03-18T04:34:00.442Z,26.3
2023-03-18T04:39:52.911Z,26.7
2023-03-18T04:45:46.515Z,25.8
2023-03-18T04:51:39.516Z,24.9
2023-03-18T04:57:17.380Z,24.4
2023-03-18T05:02:58.358Z,23.9
2023-03-18T05:08:50.775Z,23.8
2023-03-18T05:14:43.295Z,23.6
2023-03-18T05:20:05.066Z,24.3
2023-03-18T05:25:56.915Z,25.8
2023-03-18T05:31:50.276Z,26.6
2023-03-18T05:37:44.892Z,26.6
2023-03-18T05:43:45.606Z,25.2
2023-03-18T05:49:38.145Z,24.8
2023-03-18T05:55:31.813Z,24.1
2023-03-18T06:00:54.302Z,23.8
2023-03-18T06:06:32.900Z,23.5
2023-03-18T06:12:27.643Z,24
2023-03-18T06:18:20.673Z,24.8
2023-03-18T06:23:58.780Z,26
2023-03-18T06:29:51.863Z,26.6
2023-03-18T06:35:45.491Z,26.6
2023-03-18T06:41:37.966Z,25.3
2023-03-18T06:47:33.593Z,24.8
2023-03-18T06:53:25.506Z,24.1
2023-03-18T06:59:17.801Z,23.8
2023-03-18T07:04:55.675Z,23.6
2023-03-18T07:10:48.275Z,23.9
2023-03-18T07:16:41.127Z,24.8
2023-03-18T07:22:21.807Z,25.8
2023-03-18T07:28:00.325Z,24.7
2023-03-18T07:33:57.072Z,24.4
2023-03-18T07:39:50.185Z,25.9
2023-03-18T07:45:45.149Z,26.7
2023-03-18T07:51:37.985Z,26.5
2023-03-18T07:57:31.668Z,25
2023-03-18T08:03:29.023Z,24.4
2023-03-18T08:09:08.000Z,23.9
2023-03-18T08:15:20.637Z,24.2
2023-03-18T08:21:14.107Z,25.4
2023-03-18T08:27:06.864Z,26.6
2023-03-18T08:33:01.162Z,26.8
2023-03-18T08:38:55.957Z,26.4
2023-03-18T08:44:32.643Z,26.2
2023-03-18T08:50:10.686Z,25.6
2023-03-18T08:56:03.100Z,24.6
2023-03-18T09:01:40.198Z,26.4
2023-03-18T09:07:02.697Z,26.8
2023-03-18T09:13:02.268Z,26.6
2023-03-18T09:19:21.438Z,26.3
2023-03-18T09:25:14.040Z,24.8
2023-03-18T09:31:06.851Z,26.4
2023-03-18T09:37:00.128Z,27
2023-03-18T09:42:53.703Z,26.7
2023-03-18T09:48:46.566Z,26.3
2023-03-18T09:54:39.486Z,25.3
2023-03-18T10:00:16.482Z,26.9
2023-03-18T10:06:09.342Z,27
2023-03-18T10:11:46.417Z,26.7
2023-03-18T10:17:23.871Z,25.3
2023-03-18T10:23:17.428Z,26.2
2023-03-18T10:29:21.211Z,27.1
2023-03-18T10:35:32.359Z,26.9
2023-03-18T10:41:10.982Z,26.6
2023-03-18T10:47:03.437Z,25.3
2023-03-18T10:52:56.202Z,27
2023-03-18T10:58:48.425Z,27.1
2023-03-18T11:04:41.425Z,26.8
2023-03-18T11:10:34.821Z,25.7
2023-03-18T11:16:28.492Z,25.9
2023-03-18T11:22:21.168Z,27.3
2023-03-18T11:28:13.893Z,27
2023-03-18T11:34:17.064Z,26.6
2023-03-18T11:40:15.351Z,25.4
2023-03-18T11:46:08.782Z,26.7
2023-03-18T11:51:46.183Z,27.2
2023-03-18T11:57:08.097Z,26.9
2023-03-18T12:02:31.498Z,26.6
2023-03-18T12:07:54.779Z,25.4
2023-03-18T12:13:48.591Z,27.1
2023-03-18T12:19:43.399Z,27.3
2023-03-18T12:25:20.609Z,26.9
2023-03-18T12:30:42.992Z,26.1
2023-03-18T12:36:22.524Z,25.8
2023-03-18T12:42:16.256Z,27.3
2023-03-18T12:48:10.121Z,27.2
2023-03-18T12:53:58.170Z,26.9
2023-03-18T12:59:53.181Z,25.8
2023-03-18T13:05:35.185Z,26.4
2023-03-18T13:11:12.705Z,27.4
2023-03-18T13:17:08.893Z,27.2
2023-03-18T13:22:46.964Z,26.8
2023-03-18T13:28:40.944Z,25.6
2023-03-18T13:34:34.559Z,27
2023-03-18T13:40:29.173Z,27.4
2023-03-18T13:46:22.730Z,27
2023-03-18T13:52:00.867Z,26.7
2023-03-18T13:57:53.008Z,25.7
2023-03-18T14:03:47.799Z,27.3
2023-03-18T14:09:41.036Z,27.5
2023-03-18T14:15:50.790Z,27.1
2023-03-18T14:21:31.252Z,26.8
2023-03-18T14:26:55.060Z,26.4
2023-03-18T14:32:17.055Z,26.1
2023-03-18T14:37:54.803Z,25.8
2023-03-18T14:43:50.438Z,25.4
2023-03-18T14:49:36.116Z,25.1
2023-03-18T14:55:12.802Z,24.8
2023-03-18T15:01:05.291Z,24.5
2023-03-18T15:06:58.233Z,24.3
2023-03-18T15:12:48.852Z,24
2023-03-18T15:18:26.122Z,23.8
2023-03-18T15:24:19.265Z,23.6
2023-03-18T15:29:56.241Z,23.4
2023-03-18T15:35:50.195Z,23.3
2023-03-18T15:41:42.500Z,23.1
2023-03-18T15:47:20.371Z,22.9
2023-03-18T15:53:13.168Z,22.8
2023-03-18T15:58:51.486Z,22.6
2023-03-18T16:04:43.494Z,22.4
2023-03-18T16:10:36.458Z,22.3
2023-03-18T16:16:14.058Z,22.2
2023-03-18T16:22:07.258Z,22.1
2023-03-18T16:28:00.437Z,22
2023-03-18T16:33:52.811Z,21.9
2023-03-18T16:39:31.309Z,21.8
2023-03-18T16:45:08.057Z,21.7
2023-03-18T16:50:45.520Z,21.6
2023-03-18T16:56:38.655Z,23.1
2023-03-18T17:02:16.116Z,25.6
2023-03-18T17:07:53.701Z,27.3
2023-03-18T17:13:46.775Z,28.3
2023-03-18T17:19:26.160Z,29.3
2023-03-18T17:25:18.167Z,29.7
2023-03-18T17:30:56.134Z,29.8
2023-03-18T17:36:51.554Z,29.6
2023-03-18T17:42:29.049Z,29.7
2023-03-18T17:48:06.975Z,29.7
2023-03-18T17:53:59.472Z,29.7
2023-03-18T17:59:36.252Z,29.8
2023-03-18T18:05:30.330Z,30
2023-03-18T18:10:51.444Z,30.6
2023-03-18T18:16:28.549Z,30.9
2023-03-18T18:22:24.927Z,30.8
2023-03-18T18:28:03.364Z,30.9
2023-03-18T18:33:28.570Z,30.8
2023-03-18T18:39:06.564Z,31.1
2023-03-18T18:44:59.458Z,30.9
2023-03-18T18:50:21.408Z,31.1
2023-03-18T18:56:15.344Z,31.2
2023-03-18T19:02:08.764Z,31.7
2023-03-18T19:07:46.620Z,31.6
2023-03-18T19:13:40.872Z,31.8
2023-03-18T19:19:18.627Z,32.1
2023-03-18T19:25:10.966Z,32.1
2023-03-18T19:30:55.969Z,32.1
2023-03-18T19:36:48.918Z,31.9
2023-03-18T19:42:26.802Z,31.9
2023-03-18T19:48:06.117Z,31.6
2023-03-18T19:54:01.588Z,31.8
2023-03-18T19:59:56.376Z,31.6
2023-03-18T20:05:51.040Z,31.3
2023-03-18T20:11:43.567Z,31.2
2023-03-18T20:17:36.337Z,31.4
2023-03-18T20:23:29.554Z,31.1
2023-03-18T20:29:06.383Z,30.8
2023-03-18T20:34:29.194Z,30.6
2023-03-18T20:39:51.544Z,30.3
2023-03-18T20:44:58.003Z,29.9
2023-03-18T20:50:35.910Z,29.6
2023-03-18T20:56:28.396Z,29.2
2023-03-18T21:02:06.116Z,28.9
2023-03-18T21:07:59.441Z,28.6
2023-03-18T21:13:37.703Z,28.3
2023-03-18T21:19:31.252Z,28.1
2023-03-18T21:25:36.642Z,27.6
2023-03-18T21:31:47.705Z,27.1
2023-03-18T21:37:25.654Z,26.4
2023-03-18T21:43:18.451Z,26.4
2023-03-18T21:48:58.814Z,25.8
2023-03-18T21:55:03.334Z,25.9
2023-03-18T22:00:55.682Z,25.3
2023-03-18T22:06:49.157Z,25.4
2023-03-18T22:12:25.488Z,25.3
2023-03-18T22:17:47.793Z,24.9
2023-03-18T22:23:40.890Z,25.1
2023-03-18T22:28:47.655Z,24.6
2023-03-18T22:34:25.661Z,24.9
2023-03-18T22:40:19.207Z,24.4
2023-03-18T22:46:13.836Z,25.6
2023-03-18T22:51:50.493Z,26.6
2023-03-18T22:57:30.102Z,27.3
2023-03-18T23:03:23.487Z,26.5
2023-03-18T23:08:45.409Z,25.8
2023-03-18T23:14:53.001Z,25.4
2023-03-18T23:20:46.726Z,24.9
2023-03-18T23:26:39.520Z,24.7
2023-03-18T23:32:37.104Z,24.3
2023-03-18T23:37:44.063Z,24.3
2023-03-18T23:43:37.114Z,24
2023-03-18T23:49:32.005Z,25.1
2023-03-18T23:55:47.278Z,26.7
